createdAt,value
2023-04-12T00:00:10.912Z,3.27
2023-04-12T00:02:38.902Z,4.37
2023-04-12T00:05:05.942Z,4.10
2023-04-12T00:07:32.371Z,3.13
2023-04-12T00:09:58.862Z,4.03
2023-04-12T00:12:25.283Z,3.40
2023-04-12T00:14:51.416Z,6.07
2023-04-12T00:17:18.528Z,7.40
2023-04-12T00:19:44.741Z,4.03
2023-04-12T00:22:11.533Z,4.60
2023-04-12T00:24:39.976Z,5.37
2023-04-12T00:27:06.702Z,4.07
2023-04-12T00:29:33.721Z,4.23
2023-04-12T00:32:00.886Z,4.30
2023-04-12T00:34:27.964Z,4.23
2023-04-12T00:36:54.702Z,5.17
2023-04-12T00:39:21.333Z,3.97
2023-04-12T00:41:47.470Z,6.23
2023-04-12T00:44:13.641Z,4.17
2023-04-12T00:46:41.288Z,4.93
2023-04-12T00:49:07.493Z,7.80
2023-04-12T00:51:33.776Z,3.73
2023-04-12T00:54:01.071Z,4.27
2023-04-12T00:56:28.231Z,3.87
2023-04-12T00:58:56.424Z,4.90
2023-04-12T01:01:23.113Z,4.30
2023-04-12T01:03:52.013Z,6.80
2023-04-12T01:07:18.078Z,6.80
2023-04-12T01:10:11.832Z,6.10
2023-04-12T01:13:00.784Z,5.80
2023-04-12T01:15:33.265Z,5.67
2023-04-12T01:18:21.370Z,9.50
2023-04-12T01:21:01.680Z,5.63
2023-04-12T01:23:57.249Z,5.80
2023-04-12T01:26:46.114Z,4.90
2023-04-12T01:29:16.319Z,3.57
2023-04-12T01:32:01.126Z,4.63
2023-04-12T01:34:32.572Z,7.07
2023-04-12T01:37:02.969Z,5.60
2023-04-12T01:39:31.874Z,4.27
2023-04-12T01:41:58.070Z,3.83
2023-04-12T01:44:24.932Z,4.10
2023-04-12T01:46:52.194Z,3.97
2023-04-12T01:49:23.460Z,4.73
2023-04-12T01:52:00.981Z,7.20
2023-04-12T01:54:37.178Z,5.60
2023-04-12T01:57:07.659Z,3.67
2023-04-12T01:59:45.353Z,8.67
2023-04-12T02:02:13.284Z,2.93
2023-04-12T02:04:41.492Z,6.37
2023-04-12T02:07:08.710Z,6.73
2023-04-12T02:09:39.078Z,5.40
2023-04-12T02:12:06.315Z,4.77
2023-04-12T02:14:32.578Z,5.77
2023-04-12T02:17:01.536Z,3.80
2023-04-12T02:19:28.685Z,5.30
2023-04-12T02:21:54.809Z,4.53
2023-04-12T02:24:21.791Z,7.87
2023-04-12T02:26:50.983Z,4.60
2023-04-12T02:29:17.662Z,5.37
2023-04-12T02:31:48.649Z,4.87
2023-04-12T02:34:17.212Z,5.57
2023-04-12T02:36:49.105Z,3.17
2023-04-12T02:39:21.222Z,3.17
2023-04-12T02:41:50.378Z,8.30
2023-04-12T02:44:16.608Z,4.43
2023-04-12T02:46:49.538Z,3.33
2023-04-12T02:49:15.928Z,5.93
2023-04-12T02:51:42.684Z,3.97
2023-04-12T02:54:10.666Z,4.70
2023-04-12T02:56:50.538Z,5.03
2023-04-12T02:59:33.021Z,4.03
2023-04-12T03:02:28.500Z,5.53
2023-04-12T03:05:02.580Z,2.80
2023-04-12T03:07:38.274Z,2.97
2023-04-12T03:10:06.857Z,5.20
2023-04-12T03:12:36.078Z,4.60
2023-04-12T03:15:13.258Z,4.23
2023-04-12T03:17:42.367Z,4.13
2023-04-12T03:20:09.652Z,3.93
2023-04-12T03:22:38.897Z,6.93
2023-04-12T03:25:09.303Z,4.23
2023-04-12T03:27:39.667Z,4.83
2023-04-12T03:30:07.318Z,3.80
2023-04-12T03:32:36.240Z,4.03
2023-04-12T03:35:04.060Z,3.30
2023-04-12T03:37:30.913Z,3.40
2023-04-12T03:39:57.396Z,3.17
2023-04-12T03:42:33.259Z,2.83
2023-04-12T03:45:07.552Z,5.87
2023-04-12T03:47:34.049Z,2.90
2023-04-12T03:50:11.537Z,4.67
2023-04-12T03:52:40.716Z,2.70
2023-04-12T03:55:07.987Z,4.33
2023-04-12T03:57:35.488Z,3.43
2023-04-12T04:00:03.443Z,4.10
2023-04-12T04:02:44.573Z,3.23
2023-04-12T04:05:12.251Z,2.90
2023-04-12T04:07:39.433Z,2.60
2023-04-12T04:10:06.401Z,3.33
2023-04-12T04:12:36.142Z,2.70
2023-04-12T04:15:03.135Z,2.60
2023-04-12T04:17:31.055Z,3.93
2023-04-12T04:19:57.549Z,3.57
2023-04-12T04:22:24.185Z,2.67
2023-04-12T04:24:52.131Z,2.73
2023-04-12T04:27:19.979Z,3.00
2023-04-12T04:29:47.997Z,2.83
2023-04-12T04:32:16.365Z,2.43
2023-04-12T04:34:44.344Z,2.87
2023-04-12T04:37:15.382Z,3.97
2023-04-12T04:39:44.325Z,4.90
2023-04-12T04:42:11.633Z,3.00
2023-04-12T04:44:39.822Z,2.90
2023-04-12T04:47:09.023Z,3.27
2023-04-12T04:49:38.303Z,5.13
2023-04-12T04:52:20.098Z,6.80
2023-04-12T04:54:47.719Z,3.37
2023-04-12T04:57:14.303Z,3.17
2023-04-12T04:59:40.760Z,3.50
2023-04-12T05:02:15.903Z,3.03
2023-04-12T05:04:43.415Z,2.70
2023-04-12T05:07:13.696Z,2.23
2023-04-12T05:09:42.870Z,2.40
2023-04-12T05:12:09.301Z,2.53
2023-04-12T05:14:46.750Z,2.10
2023-04-12T05:17:16.900Z,2.20
2023-04-12T05:19:44.263Z,2.30
2023-04-12T05:22:10.927Z,2.27
2023-04-12T05:24:37.270Z,2.30
2023-04-12T05:27:03.583Z,2.40
2023-04-12T05:29:30.172Z,3.13
2023-04-12T05:31:58.704Z,2.40
2023-04-12T05:34:25.683Z,2.33
2023-04-12T05:36:55.133Z,2.40
2023-04-12T05:39:21.839Z,2.33
2023-04-12T05:41:49.818Z,2.50
2023-04-12T05:44:15.950Z,2.20
2023-04-12T05:46:42.498Z,2.00
2023-04-12T05:49:09.002Z,2.23
2023-04-12T05:51:41.328Z,1.97
2023-04-12T05:54:13.448Z,1.97
2023-04-12T05:56:39.831Z,1.83
2023-04-12T05:59:06.505Z,2.00
2023-04-12T06:01:33.541Z,1.90
2023-04-12T06:04:04.983Z,2.00
2023-04-12T06:06:31.901Z,2.83
2023-04-12T06:09:00.295Z,2.30
2023-04-12T06:11:28.678Z,2.10
2023-04-12T06:13:55.162Z,2.07
2023-04-12T06:16:22.188Z,2.20
2023-04-12T06:18:48.556Z,2.53
2023-04-12T06:21:14.719Z,2.10
2023-04-12T06:23:41.907Z,2.07
2023-04-12T06:26:08.848Z,1.90
2023-04-12T06:28:34.967Z,2.10
2023-04-12T06:31:01.133Z,1.93
2023-04-12T06:33:31.941Z,1.90
2023-04-12T06:35:59.674Z,2.47
2023-04-12T06:38:25.821Z,2.17
2023-04-12T06:40:52.074Z,2.20
2023-04-12T06:43:19.543Z,1.87
2023-04-12T06:45:45.973Z,1.90
2023-04-12T06:48:12.082Z,2.73
2023-04-12T06:50:39.363Z,2.03
2023-04-12T06:53:05.546Z,1.77
2023-04-12T06:55:31.704Z,2.20
2023-04-12T06:57:57.946Z,1.80
2023-04-12T07:00:24.300Z,4.10
2023-04-12T07:02:50.610Z,1.80
2023-04-12T07:05:17.113Z,1.90
2023-04-12T07:07:44.497Z,2.00
2023-04-12T07:10:10.878Z,2.07
2023-04-12T07:12:37.435Z,2.00
2023-04-12T07:15:04.190Z,2.30
2023-04-12T07:17:30.333Z,2.00
2023-04-12T07:19:56.526Z,1.67
2023-04-12T07:22:22.848Z,1.90
2023-04-12T07:24:50.379Z,3.00
2023-04-12T07:27:16.588Z,3.23
2023-04-12T07:29:42.888Z,4.97
2023-04-12T07:32:10.042Z,2.07
2023-04-12T07:34:38.662Z,1.93
2023-04-12T07:37:05.434Z,1.90
2023-04-12T07:39:33.835Z,1.87
2023-04-12T07:42:00.624Z,1.77
2023-04-12T07:44:26.768Z,1.80
2023-04-12T07:46:52.878Z,1.80
2023-04-12T07:49:19.005Z,2.00
2023-04-12T07:51:45.558Z,2.27
2023-04-12T07:54:12.714Z,2.53
2023-04-12T07:56:39.105Z,1.70
2023-04-12T07:59:06.029Z,1.70
2023-04-12T08:01:32.240Z,1.90
2023-04-12T08:03:58.641Z,1.70
2023-04-12T08:06:28.339Z,2.07
2023-04-12T08:08:56.748Z,1.60
2023-04-12T08:11:23.115Z,1.80
2023-04-12T08:13:49.265Z,1.57
2023-04-12T08:16:15.826Z,1.90
2023-04-12T08:18:42.028Z,1.80
2023-04-12T08:21:08.191Z,1.63
2023-04-12T08:23:34.319Z,1.50
2023-04-12T08:26:02.825Z,1.50
2023-04-12T08:28:30.593Z,1.40
2023-04-12T08:30:57.115Z,1.47
2023-04-12T08:33:23.284Z,1.37
2023-04-12T08:35:49.439Z,1.37
2023-04-12T08:38:15.714Z,1.50
2023-04-12T08:40:43.232Z,1.60
2023-04-12T08:43:11.577Z,1.63
2023-04-12T08:45:38.001Z,1.30
2023-04-12T08:48:05.169Z,1.50
2023-04-12T08:50:32.416Z,1.50
2023-04-12T08:52:59.317Z,1.40
2023-04-12T08:55:25.585Z,1.30
2023-04-12T08:57:56.013Z,1.30
2023-04-12T09:00:22.718Z,1.50
2023-04-12T09:02:49.130Z,1.37
2023-04-12T09:05:15.734Z,1.20
2023-04-12T09:07:42.004Z,1.40
2023-04-12T09:10:08.686Z,1.40
2023-04-12T09:12:34.910Z,1.10
2023-04-12T09:15:08.752Z,1.37
2023-04-12T09:17:36.193Z,1.30
2023-04-12T09:20:03.763Z,1.10
2023-04-12T09:22:39.238Z,1.30
2023-04-12T09:25:06.756Z,1.30
2023-04-12T09:27:53.768Z,1.27
2023-04-12T09:30:20.405Z,1.20
2023-04-12T09:32:50.207Z,1.60
2023-04-12T09:35:16.484Z,1.40
2023-04-12T09:37:42.705Z,1.40
2023-04-12T09:40:10.322Z,3.73
2023-04-12T09:42:52.484Z,1.83
2023-04-12T09:45:23.450Z,1.40
2023-04-12T09:47:50.452Z,1.40
2023-04-12T09:50:28.528Z,1.20
2023-04-12T09:52:59.791Z,1.30
2023-04-12T09:55:28.801Z,1.80
2023-04-12T09:57:55.734Z,1.50
2023-04-12T10:00:25.936Z,1.27
2023-04-12T10:02:55.364Z,1.60
2023-04-12T10:05:25.014Z,1.27
2023-04-12T10:07:52.595Z,1.30
2023-04-12T10:10:20.668Z,1.57
2023-04-12T10:12:48.874Z,1.27
2023-04-12T10:15:20.967Z,1.10
2023-04-12T10:17:53.282Z,1.30
2023-04-12T10:20:22.600Z,1.10
2023-04-12T10:22:52.433Z,1.20
2023-04-12T10:25:26.131Z,1.43
2023-04-12T10:27:52.934Z,1.10
2023-04-12T10:30:31.116Z,1.10
2023-04-12T10:33:05.832Z,1.23
2023-04-12T10:35:56.332Z,1.50
2023-04-12T10:38:25.900Z,1.43
2023-04-12T10:41:14.307Z,1.30
2023-04-12T10:43:50.966Z,1.20
2023-04-12T10:46:45.617Z,1.10
2023-04-12T10:49:16.348Z,1.20
2023-04-12T10:52:13.491Z,1.20
2023-04-12T10:54:39.730Z,1.43
2023-04-12T10:57:40.598Z,1.20
2023-04-12T11:00:08.197Z,1.30
2023-04-12T11:02:35.806Z,1.70
2023-04-12T11:05:10.588Z,1.83
2023-04-12T11:08:00.043Z,2.00
2023-04-12T11:10:46.187Z,1.90
2023-04-12T11:13:19.527Z,1.50
2023-04-12T11:15:45.671Z,1.47
2023-04-12T11:18:12.429Z,1.20
2023-04-12T11:20:39.911Z,1.30
2023-04-12T11:23:06.919Z,1.20
2023-04-12T11:25:35.106Z,1.37
2023-04-12T11:28:01.357Z,1.60
2023-04-12T11:30:28.910Z,1.67
2023-04-12T11:32:55.079Z,1.80
2023-04-12T11:35:26.578Z,1.70
2023-04-12T11:37:56.731Z,1.50
2023-04-12T11:40:24.190Z,1.47
2023-04-12T11:42:51.169Z,1.70
2023-04-12T11:45:20.753Z,1.53
2023-04-12T11:47:47.165Z,1.60
2023-04-12T11:50:27.242Z,1.80
2023-04-12T11:52:53.616Z,1.20
2023-04-12T11:55:19.839Z,1.60
2023-04-12T11:57:55.302Z,1.60
2023-04-12T12:00:23.691Z,2.53
2023-04-12T12:03:04.356Z,2.07
2023-04-12T12:05:36.100Z,4.10
2023-04-12T12:08:06.685Z,2.30
2023-04-12T12:11:39.937Z,2.90
2023-04-12T12:13:24.086Z,2.20
2023-04-12T12:15:53.352Z,1.97
2023-04-12T12:18:26.463Z,1.70
2023-04-12T12:20:54.849Z,1.60
2023-04-12T12:23:32.062Z,1.80
2023-04-12T12:26:17.648Z,2.20
2023-04-12T12:28:53.048Z,1.80
2023-04-12T12:31:22.306Z,1.80
2023-04-12T12:33:53.055Z,1.70
2023-04-12T12:36:22.191Z,2.17
2023-04-12T12:38:52.535Z,1.70
2023-04-12T12:41:24.270Z,1.50
2023-04-12T12:43:52.295Z,2.30
2023-04-12T12:46:20.024Z,1.50
2023-04-12T12:48:47.937Z,1.60
2023-04-12T12:51:19.366Z,1.47
2023-04-12T12:53:46.223Z,1.70
2023-04-12T12:56:14.129Z,1.60
2023-04-12T12:58:41.378Z,1.50
2023-04-12T13:01:08.383Z,2.27
2023-04-12T13:03:34.924Z,1.50
2023-04-12T13:06:01.108Z,1.67
2023-04-12T13:08:28.685Z,1.83
2023-04-12T13:10:54.992Z,2.17
2023-04-12T13:13:21.112Z,2.30
2023-04-12T13:15:47.200Z,2.20
2023-04-12T13:18:16.212Z,2.83
2023-04-12T13:20:42.655Z,3.13
2023-04-12T13:23:09.095Z,2.30
2023-04-12T13:25:35.434Z,3.77
2023-04-12T13:28:01.544Z,2.20
2023-04-12T13:30:27.650Z,5.00
2023-04-12T13:32:54.476Z,2.27
2023-04-12T13:35:20.730Z,2.50
2023-04-12T13:37:47.127Z,4.90
2023-04-12T13:40:13.394Z,3.63
2023-04-12T13:42:40.615Z,2.47
2023-04-12T13:45:07.858Z,2.57
2023-04-12T13:47:34.728Z,2.70
2023-04-12T13:50:01.041Z,3.00
2023-04-12T13:52:27.445Z,2.90
2023-04-12T13:54:53.605Z,2.50
2023-04-12T13:57:19.839Z,3.37
2023-04-12T13:59:46.076Z,2.40
2023-04-12T14:02:12.270Z,2.40
2023-04-12T14:04:51.901Z,3.43
2023-04-12T14:07:18.562Z,2.00
2023-04-12T14:09:45.240Z,2.33
2023-04-12T14:12:11.393Z,3.03
2023-04-12T14:14:37.609Z,2.40
2023-04-12T14:17:03.740Z,4.73
2023-04-12T14:19:30.033Z,2.53
2023-04-12T14:21:56.160Z,3.63
2023-04-12T14:24:23.847Z,2.00
2023-04-12T14:26:49.977Z,2.37
2023-04-12T14:29:16.558Z,3.33
2023-04-12T14:31:43.187Z,2.57
2023-04-12T14:34:09.939Z,1.80
2023-04-12T14:36:36.621Z,1.70
2023-04-12T14:39:03.330Z,2.00
2023-04-12T14:41:30.809Z,2.93
2023-04-12T14:43:59.351Z,1.70
2023-04-12T14:46:27.414Z,2.00
2023-04-12T14:48:58.728Z,1.67
2023-04-12T14:51:25.270Z,1.70
2023-04-12T14:53:51.488Z,2.00
2023-04-12T14:56:24.538Z,2.83
2023-04-12T14:58:55.112Z,2.73
2023-04-12T15:01:24.659Z,1.53
2023-04-12T15:03:54.175Z,2.57
2023-04-12T15:06:22.757Z,2.03
2023-04-12T15:08:56.305Z,2.90
2023-04-12T15:11:25.827Z,3.23
2023-04-12T15:13:52.773Z,3.43
2023-04-12T15:16:19.069Z,2.60
2023-04-12T15:18:45.234Z,2.10
2023-04-12T15:21:12.085Z,2.37
2023-04-12T15:23:40.727Z,3.20
2023-04-12T15:26:08.470Z,2.70
2023-04-12T15:28:35.876Z,2.87
2023-04-12T15:31:03.625Z,2.20
2023-04-12T15:33:33.485Z,3.43
2023-04-12T15:36:04.082Z,2.80
2023-04-12T15:38:31.003Z,1.97
2023-04-12T15:41:00.752Z,1.50
2023-04-12T15:43:27.876Z,2.13
2023-04-12T15:45:54.523Z,1.93
2023-04-12T15:48:22.312Z,5.00
2023-04-12T15:50:50.093Z,3.53
2023-04-12T15:53:20.423Z,4.53
2023-04-12T15:55:47.157Z,3.90
2023-04-12T15:58:13.973Z,2.83
2023-04-12T16:00:40.424Z,3.10
2023-04-12T16:03:06.882Z,5.13
2023-04-12T16:05:34.105Z,3.17
2023-04-12T16:08:00.802Z,5.70
2023-04-12T16:10:27.397Z,6.33
2023-04-12T16:12:55.822Z,9.27
2023-04-12T16:15:22.693Z,5.53
2023-04-12T16:17:52.573Z,5.87
2023-04-12T16:20:22.343Z,5.13
2023-04-12T16:22:53.745Z,5.27
2023-04-12T16:25:24.861Z,3.63
2023-04-12T16:27:51.458Z,4.57
2023-04-12T16:30:17.823Z,4.20
2023-04-12T16:32:48.394Z,4.00
2023-04-12T16:35:15.945Z,3.43
2023-04-12T16:37:43.589Z,4.00
2023-04-12T16:40:11.971Z,3.03
2023-04-12T16:42:43.300Z,5.10
2023-04-12T16:45:13.162Z,2.90
2023-04-12T16:47:40.299Z,6.73
2023-04-12T16:50:12.235Z,4.13
2023-04-12T16:52:40.176Z,4.90
2023-04-12T16:55:10.061Z,3.70
2023-04-12T16:57:41.988Z,3.77
2023-04-12T17:00:20.706Z,3.23
2023-04-12T17:02:52.936Z,2.57
2023-04-12T17:05:21.540Z,3.13
2023-04-12T17:07:51.973Z,3.93
2023-04-12T17:10:20.903Z,4.50
2023-04-12T17:12:51.024Z,2.10
2023-04-12T17:15:24.416Z,5.77
2023-04-12T17:17:53.354Z,2.83
2023-04-12T17:20:22.351Z,3.97
2023-04-12T17:22:49.247Z,3.20
2023-04-12T17:25:16.467Z,3.80
2023-04-12T17:27:44.044Z,5.00
2023-04-12T17:30:11.630Z,2.53
2023-04-12T17:32:39.771Z,5.73
2023-04-12T17:35:06.734Z,4.40
2023-04-12T17:37:34.274Z,3.43
2023-04-12T17:40:00.787Z,4.27
2023-04-12T17:42:27.224Z,2.93
2023-04-12T17:44:53.391Z,4.67
2023-04-12T17:47:19.671Z,3.47
2023-04-12T17:49:46.273Z,2.87
2023-04-12T17:52:13.596Z,3.17
2023-04-12T17:54:40.323Z,3.90
2023-04-12T17:57:06.500Z,3.33
2023-04-12T17:59:32.914Z,3.17
2023-04-12T18:02:01.245Z,2.60
2023-04-12T18:04:29.145Z,3.00
2023-04-12T18:06:56.249Z,2.93
2023-04-12T18:09:26.617Z,3.40
2023-04-12T18:11:53.018Z,4.17
2023-04-12T18:14:19.688Z,3.83
2023-04-12T18:16:46.232Z,2.77
2023-04-12T18:19:15.372Z,4.13
2023-04-12T18:21:46.275Z,2.43
2023-04-12T18:24:12.394Z,3.00
2023-04-12T18:26:38.526Z,2.37
2023-04-12T18:29:04.655Z,3.63
2023-04-12T18:31:31.210Z,2.50
2023-04-12T18:33:58.214Z,2.10
2023-04-12T18:36:26.441Z,2.63
2023-04-12T18:38:52.803Z,2.47
2023-04-12T18:41:18.925Z,4.83
2023-04-12T18:43:45.047Z,2.80
2023-04-12T18:46:18.621Z,3.07
2023-04-12T18:48:47.602Z,2.80
2023-04-12T18:51:14.862Z,3.07
2023-04-12T18:53:41.034Z,3.40
2023-04-12T18:56:11.713Z,2.97
2023-04-12T18:58:53.908Z,2.87
2023-04-12T19:01:21.270Z,2.80
2023-04-12T19:03:47.669Z,3.10
2023-04-12T19:06:14.720Z,3.33
2023-04-12T19:08:43.003Z,3.23
2023-04-12T19:11:09.455Z,3.43
2023-04-12T19:13:36.361Z,5.87
2023-04-12T19:16:02.591Z,4.20
2023-04-12T19:18:29.462Z,3.80
2023-04-12T19:20:56.140Z,4.00
2023-04-12T19:23:22.309Z,8.07
2023-04-12T19:25:49.223Z,11.13
2023-04-12T19:28:15.696Z,12.90
2023-04-12T19:30:41.799Z,8.83
2023-04-12T19:33:08.254Z,7.40
2023-04-12T19:35:35.142Z,4.73
2023-04-12T19:38:02.741Z,3.00
2023-04-12T19:40:31.052Z,3.20
2023-04-12T19:42:57.676Z,5.30
2023-04-12T19:45:25.427Z,3.33
2023-04-12T19:47:52.002Z,3.13
2023-04-12T19:50:19.162Z,3.20
2023-04-12T19:52:47.025Z,3.30
2023-04-12T19:55:15.101Z,3.47
2023-04-12T19:57:42.329Z,3.40
2023-04-12T20:00:18.962Z,5.30
2023-04-12T20:02:47.154Z,3.63
2023-04-12T20:05:13.339Z,3.73
2023-04-12T20:07:39.459Z,3.63
2023-04-12T20:10:09.401Z,3.00
2023-04-12T20:12:39.207Z,4.00
2023-04-12T20:15:10.978Z,5.90
2023-04-12T20:17:43.072Z,3.70
2023-04-12T20:20:11.949Z,2.90
2023-04-12T20:22:43.167Z,3.90
2023-04-12T20:25:10.066Z,3.70
2023-04-12T20:27:37.085Z,4.03
2023-04-12T20:30:05.648Z,4.63
2023-04-12T20:32:33.677Z,3.57
2023-04-12T20:35:00.493Z,6.03
2023-04-12T20:37:26.626Z,4.23
2023-04-12T20:39:52.723Z,3.97
2023-04-12T20:42:20.597Z,4.20
2023-04-12T20:44:47.561Z,4.03
2023-04-12T20:47:14.929Z,3.17
2023-04-12T20:49:41.592Z,3.80
2023-04-12T20:52:08.820Z,6.30
2023-04-12T20:54:35.003Z,6.27
2023-04-12T20:57:03.754Z,6.20
2023-04-12T20:59:35.153Z,6.47
2023-04-12T21:02:01.489Z,6.27
2023-04-12T21:04:27.942Z,6.80
2023-04-12T21:06:56.929Z,6.67
2023-04-12T21:09:23.750Z,6.43
2023-04-12T21:11:52.203Z,7.37
2023-04-12T21:14:19.730Z,6.80
2023-04-12T21:16:48.001Z,7.10
2023-04-12T21:19:15.710Z,4.87
2023-04-12T21:21:41.939Z,5.17
2023-04-12T21:24:08.204Z,5.60
2023-04-12T21:26:34.638Z,5.60
2023-04-12T21:29:01.631Z,6.30
2023-04-12T21:31:30.718Z,6.07
2023-04-12T21:34:00.186Z,5.17
2023-04-12T21:36:27.809Z,5.50
2023-04-12T21:38:55.393Z,4.97
2023-04-12T21:41:23.170Z,5.20
2023-04-12T21:43:49.434Z,5.43
2023-04-12T21:46:15.597Z,5.53
2023-04-12T21:48:42.566Z,4.87
2023-04-12T21:51:08.736Z,4.17
2023-04-12T21:53:34.849Z,4.97
2023-04-12T21:56:00.963Z,4.63
2023-04-12T21:58:31.621Z,4.60
2023-04-12T22:00:58.097Z,4.00
2023-04-12T22:03:25.409Z,4.30
2023-04-12T22:06:03.675Z,4.70
2023-04-12T22:08:31.978Z,4.57
2023-04-12T22:10:58.351Z,5.20
2023-04-12T22:13:24.501Z,4.40
2023-04-12T22:15:51.849Z,4.00
2023-04-12T22:18:18.747Z,2.97
2023-04-12T22:20:45.233Z,3.43
2023-04-12T22:23:12.915Z,4.13
2023-04-12T22:25:39.046Z,2.47
2023-04-12T22:28:05.165Z,2.80
2023-04-12T22:30:31.517Z,2.80
2023-04-12T22:32:59.094Z,2.30
2023-04-12T22:35:26.280Z,2.33
2023-04-12T22:37:52.445Z,2.40
2023-04-12T22:40:18.757Z,2.67
2023-04-12T22:42:47.771Z,2.63
2023-04-12T22:45:17.556Z,2.77
2023-04-12T22:47:44.981Z,2.67
2023-04-12T22:50:12.227Z,2.83
2023-04-12T22:52:39.259Z,2.60
2023-04-12T22:55:13.552Z,2.73
2023-04-12T22:57:40.297Z,2.63
2023-04-12T23:00:07.402Z,2.60
2023-04-12T23:02:34.184Z,2.83
2023-04-12T23:05:01.695Z,3.33
2023-04-12T23:07:29.110Z,2.80
2023-04-12T23:09:56.212Z,2.20
2023-04-12T23:12:22.651Z,2.50
2023-04-12T23:14:48.781Z,2.50
2023-04-12T23:17:16.240Z,2.53
2023-04-12T23:19:44.127Z,3.87
2023-04-12T23:22:10.716Z,3.50
2023-04-12T23:24:37.213Z,3.03
2023-04-12T23:27:03.678Z,3.00
2023-04-12T23:29:29.884Z,3.00
2023-04-12T23:31:56.097Z,2.80
2023-04-12T23:34:22.452Z,3.37
2023-04-12T23:36:51.535Z,3.13
2023-04-12T23:39:17.634Z,3.03
2023-04-12T23:41:46.076Z,3.20
2023-04-12T23:44:12.806Z,3.20
2023-04-12T23:46:39.042Z,4.70
2023-04-12T23:49:05.486Z,3.47
2023-04-12T23:51:31.699Z,2.90
2023-04-12T23:53:58.077Z,3.70
2023-04-12T23:56:25.106Z,3.60
2023-04-12T23:58:51.346Z,3.10
